Rayland, Ohio
Current Conditions -  °F | °C
As of 8:53 PM on Saturday 22 Nov 2014 (Local Time) from KHLG Reporting Station
Broken Clouds Broken Clouds  
Wind Chill: 45°   Ceiling: 10000
Heat Index: 49°   Visibility: 10mi
Dew Point: 28°   Wind: 8mph
Humidity: 44%   Direction: 210°SSW
Pressure: 30.1"   Gusts: NA
Location:  40.18°N, 80.69°W
Report Text: KHLG 230153Z AUTO 21007KT 10SM FEW065 BKN100 BKN110 09/M02 A3010 RMK AO2 SLP204 T00941022
Loading
Personal Weather Stations






























Interactive Weather Map New forecast layout! Learn more

10-Day Weather Forecast

Advertisements
Track Severe Weather on mobile